Alton, Missouri
Current Conditions -  °F | °C
As of 6:53 PM on Tuesday 21 Oct 2014 (Local Time) from KUNO Reporting Station
Clear Clear  
Wind Chill: 16°   Ceiling: Unl
Heat Index: 16°   Visibility: 10mi
Dew Point:   Wind: 3mph
Humidity: 58%   Direction: 350°N
Pressure: 30.1"   Gusts: NA
Location:  36.69°N, 91.4°W
Report Text: KUNO 212353Z AUTO 35003KT 10SM CLR 16/08 A3010 RMK AO2 SLP192 T01610078 10233 20156 53004
Loading
Personal Weather Stations






























Interactive Weather Map
Tropical Storm Tracking
New forecast layout! Learn more

10-Day Weather Forecast

Advertisements
Track Severe Weather on mobile